Time;durP1;ratioP1;P1;durP2;ratioP2;P2;SDS_P1;SDS_P2;PMS_P1;PMS_P2;Temp;Humidity;BMP_temperature;BMP_pressure;BME280_temperature;BME280_humidity;BME280_pressure;Samples;Min_cycle;Max_cycle;Signal;HPM_P1;HPM_P2
2022/07/09 00:01:38;;;;;;;13.73;3.83;;;;;;;22.65;50.45;99530.19;5072325;28;20043;-69
2022/07/09 00:04:04;;;;;;;8.07;3.35;;;;;;;22.64;50.35;99531.22;5072557;28;20126;-68
2022/07/09 00:06:31;;;;;;;5.15;3.20;;;;;;;22.64;50.18;99537.47;5073781;28;20146;-67
2022/07/09 00:08:57;;;;;;;6.13;3.30;;;;;;;22.66;50.18;99530.00;5076352;28;20093;-68
2022/07/09 00:11:23;;;;;;;6.93;3.28;;;;;;;22.66;50.38;99531.88;5076557;28;20082;-69
2022/07/09 00:13:48;;;;;;;11.40;3.65;;;;;;;22.65;50.47;99536.41;5076638;28;20044;-67
2022/07/09 00:16:14;;;;;;;6.75;3.65;;;;;;;22.64;50.14;99531.22;5076447;28;20063;-70
2022/07/09 00:18:39;;;;;;;7.38;3.67;;;;;;;22.63;50.31;99537.66;5075644;28;20082;-68
2022/07/09 00:21:05;;;;;;;13.75;4.10;;;;;;;22.57;50.59;99546.56;5075030;28;20040;-71
2022/07/09 00:23:30;;;;;;;6.45;3.60;;;;;;;22.52;50.78;99533.66;5074710;28;20474;-68
2022/07/09 00:25:56;;;;;;;6.47;3.90;;;;;;;22.53;50.79;99532.63;5075584;28;20074;-70
2022/07/09 00:28:22;;;;;;;5.93;3.40;;;;;;;22.50;50.86;99533.03;5074318;28;20431;-67
2022/07/09 00:30:47;;;;;;;6.18;3.22;;;;;;;22.48;50.76;99538.63;5074992;28;20062;-69
2022/07/09 00:33:13;;;;;;;5.78;3.55;;;;;;;22.46;51.03;99535.28;5074864;28;20040;-67
2022/07/09 00:35:38;;;;;;;8.10;4.43;;;;;;;22.44;51.09;99531.94;5074918;28;20139;-69
2022/07/09 00:38:04;;;;;;;7.88;3.65;;;;;;;22.40;51.19;99539.56;5074329;28;20033;-69
2022/07/09 00:40:29;;;;;;;7.22;2.90;;;;;;;22.38;51.27;99536.25;5074493;28;20028;-67
2022/07/09 00:42:55;;;;;;;7.38;3.67;;;;;;;22.42;51.24;99542.13;5074481;28;20037;-67
2022/07/09 00:45:20;;;;;;;5.00;3.50;;;;;;;22.44;51.05;99539.22;5074655;28;20032;-68
2022/07/09 00:47:45;;;;;;;6.05;3.50;;;;;;;22.40;51.01;99534.19;5074374;28;20029;-68
2022/07/09 00:50:11;;;;;;;4.80;3.25;;;;;;;22.39;51.32;99529.81;5069215;28;20565;-68
2022/07/09 00:52:38;;;;;;;5.53;3.38;;;;;;;22.40;51.15;99531.50;5054507;28;20029;-69
2022/07/09 00:55:05;;;;;;;13.20;3.85;;;;;;;22.42;51.27;99531.34;5054490;28;20427;-68
2022/07/09 00:57:31;;;;;;;4.75;3.15;;;;;;;22.43;51.03;99524.06;5054355;28;20078;-69
2022/07/09 00:59:58;;;;;;;3.92;2.60;;;;;;;22.38;51.18;99536.25;5054032;28;20048;-68
2022/07/09 01:02:24;;;;;;;5.10;3.58;;;;;;;22.36;51.17;99532.09;5071606;28;20032;-70
2022/07/09 01:04:50;;;;;;;7.57;3.42;;;;;;;22.36;51.19;99532.91;5074128;28;20553;-68
2022/07/09 01:07:15;;;;;;;5.32;3.30;;;;;;;22.35;51.40;99535.81;5074052;28;20033;-68
2022/07/09 01:09:41;;;;;;;6.30;3.78;;;;;;;22.34;51.44;99539.53;5073843;28;20036;-68
2022/07/09 01:12:07;;;;;;;7.32;3.40;;;;;;;22.29;51.58;99533.91;5073931;28;20519;-67
2022/07/09 01:14:32;;;;;;;4.63;3.08;;;;;;;22.30;51.48;99535.56;5074261;28;20055;-69
2022/07/09 01:17:00;;;;;;;8.63;4.25;;;;;;;22.31;51.59;99537.25;5055690;28;20072;-70
2022/07/09 01:19:27;;;;;;;7.25;3.58;;;;;;;22.31;51.54;99534.53;5054389;28;20045;-68
2022/07/09 01:21:53;;;;;;;6.63;3.00;;;;;;;22.30;51.41;99535.56;5055190;28;20079;-69
2022/07/09 01:24:19;;;;;;;5.32;3.28;;;;;;;22.32;51.47;99538.91;5054988;28;20061;-69
2022/07/09 01:26:44;;;;;;;5.40;3.58;;;;;;;22.32;51.46;99538.91;5054801;28;20029;-68
2022/07/09 01:29:10;;;;;;;4.10;3.17;;;;;;;22.31;51.53;99538.09;5054770;28;20520;-69
2022/07/09 01:31:36;;;;;;;4.65;3.22;;;;;;;22.30;51.38;99535.56;5055066;28;20048;-69
2022/07/09 01:34:02;;;;;;;4.80;3.10;;;;;;;22.27;51.56;99530.59;5072867;28;20037;-68
2022/07/09 01:36:27;;;;;;;5.57;3.20;;;;;;;22.24;51.70;99527.25;5074476;28;20119;-70
2022/07/09 01:38:52;;;;;;;7.93;3.85;;;;;;;22.27;51.92;99527.91;5075034;28;20028;-70
2022/07/09 01:41:18;;;;;;;5.32;3.63;;;;;;;22.24;51.81;99529.09;5074740;28;20041;-69
2022/07/09 01:43:43;;;;;;;5.80;4.20;;;;;;;22.28;51.84;99529.56;5074933;28;20028;-68
2022/07/09 01:46:09;;;;;;;5.85;3.53;;;;;;;22.25;51.76;99525.38;5074486;28;20024;-68
2022/07/09 01:48:38;;;;;;;5.70;3.22;;;;;;;22.21;51.79;99519.56;5074716;28;20028;-68
2022/07/09 01:51:04;;;;;;;5.95;3.25;;;;;;;22.22;51.92;99518.53;5074737;28;20398;-68
2022/07/09 01:53:29;;;;;;;6.40;3.30;;;;;;;22.24;51.96;99519.19;5074579;28;20111;-69
2022/07/09 01:55:55;;;;;;;4.05;2.97;;;;;;;22.23;52.02;99520.22;5074544;28;20035;-67
2022/07/09 01:58:21;;;;;;;5.80;3.25;;;;;;;22.24;52.06;99519.19;5074317;28;20368;-69
2022/07/09 02:00:46;;;;;;;6.22;3.22;;;;;;;22.27;52.05;99522.50;5074439;28;20082;-69
2022/07/09 02:03:12;;;;;;;7.32;3.50;;;;;;;22.24;52.28;99523.72;5074404;28;20032;-69
2022/07/09 02:05:38;;;;;;;3.85;2.90;;;;;;;22.25;52.26;99528.94;5074408;28;20232;-69
2022/07/09 02:08:03;;;;;;;7.50;3.72;;;;;;;22.25;52.31;99528.94;5074032;28;20390;-69
2022/07/09 02:10:30;;;;;;;4.75;3.10;;;;;;;22.27;52.44;99525.22;5074326;28;20039;-70
2022/07/09 02:12:55;;;;;;;7.75;3.05;;;;;;;22.27;52.22;99522.50;5074261;28;20024;-70
2022/07/09 02:15:21;;;;;;;10.27;3.75;;;;;;;22.25;52.22;99528.94;5069973;28;20534;-69
2022/07/09 02:17:47;;;;;;;4.82;3.38;;;;;;;22.24;52.03;99527.25;5053961;28;20064;-68
2022/07/09 02:20:12;;;;;;;5.28;3.47;;;;;;;22.23;52.36;99533.69;5053752;28;20484;-68
2022/07/09 02:22:38;;;;;;;6.38;3.92;;;;;;;22.24;52.35;99532.66;5059923;28;20032;-69
2022/07/09 02:25:04;;;;;;;5.68;3.17;;;;;;;22.23;52.52;99533.69;5074020;28;20028;-70
2022/07/09 02:27:30;;;;;;;4.88;3.72;;;;;;;22.27;52.22;99533.28;5073729;28;20032;-69
2022/07/09 02:29:55;;;;;;;5.80;3.90;;;;;;;22.30;52.24;99532.88;5072982;28;20036;-69
2022/07/09 02:32:21;;;;;;;8.02;4.28;;;;;;;22.32;52.61;99534.38;5073719;28;20032;-69
2022/07/09 02:34:46;;;;;;;8.50;3.80;;;;;;;22.34;52.53;99543.09;5073892;28;20028;-69
2022/07/09 02:37:12;;;;;;;6.35;3.42;;;;;;;22.36;52.13;99545.56;5073587;28;20040;-68
2022/07/09 02:39:37;;;;;;;8.43;3.67;;;;;;;22.44;52.21;99542.72;5073707;28;20107;-68
2022/07/09 02:42:03;;;;;;;6.88;3.95;;;;;;;22.47;52.21;99542.34;5073359;28;20059;-67
2022/07/09 02:44:29;;;;;;;5.88;3.33;;;;;;;22.49;52.69;99556.47;5073849;28;20047;-68
2022/07/09 02:46:54;;;;;;;6.55;3.85;;;;;;;22.49;52.63;99559.16;5073324;28;20553;-69
2022/07/09 02:49:21;;;;;;;7.45;4.00;;;;;;;22.47;52.35;99555.81;5073541;28;20055;-69
2022/07/09 02:51:46;;;;;;;11.05;4.45;;;;;;;22.50;52.60;99557.31;5073497;28;20079;-68
2022/07/09 02:54:12;;;;;;;6.45;4.25;;;;;;;22.49;52.90;99551.06;5073519;28;20472;-70
2022/07/09 02:56:37;;;;;;;8.77;4.30;;;;;;;22.50;52.91;99550.03;5073123;28;20040;-68
2022/07/09 02:59:03;;;;;;;7.38;4.28;;;;;;;22.50;52.72;99550.03;5073379;28;20043;-69
2022/07/09 03:01:28;;;;;;;8.27;4.05;;;;;;;22.53;52.83;99548.81;5072815;28;20056;-68
2022/07/09 03:03:54;;;;;;;7.97;3.50;;;;;;;22.51;52.55;99548.16;5073330;28;20039;-68
2022/07/09 03:06:20;;;;;;;7.25;4.13;;;;;;;22.50;52.75;99558.13;5072768;28;20040;-70
2022/07/09 03:08:45;;;;;;;5.60;3.75;;;;;;;22.45;52.50;99565.97;5073203;28;20033;-68
2022/07/09 03:11:11;;;;;;;6.32;4.50;;;;;;;22.48;52.62;99568.28;5073158;28;20142;-69
2022/07/09 03:13:36;;;;;;;9.85;3.72;;;;;;;22.51;52.52;99565.19;5073118;28;20029;-69
2022/07/09 03:16:03;;;;;;;7.65;4.97;;;;;;;22.55;52.67;99569.16;5072840;28;20470;-69
2022/07/09 03:18:29;;;;;;;12.95;4.95;;;;;;;22.54;52.99;99556.72;5072363;28;20098;-68
2022/07/09 03:20:55;;;;;;;8.68;4.88;;;;;;;22.54;53.35;99556.72;5073302;28;20044;-69
2022/07/09 03:23:21;;;;;;;11.00;4.75;;;;;;;22.57;53.16;99543.88;5072733;28;20036;-70
2022/07/09 03:25:46;;;;;;;7.53;4.85;;;;;;;22.61;53.22;99548.66;5072630;28;20032;-70
2022/07/09 03:28:11;;;;;;;9.20;5.03;;;;;;;22.63;53.14;99543.91;5072657;28;20050;-69
2022/07/09 03:30:37;;;;;;;8.15;4.35;;;;;;;22.67;53.33;99553.22;5072699;28;20036;-68
2022/07/09 03:33:03;;;;;;;7.93;5.05;;;;;;;22.68;53.08;99560.28;5072752;28;20123;-68
2022/07/09 03:35:29;;;;;;;8.93;5.10;;;;;;;22.74;53.11;99555.13;5072978;28;20032;-69
2022/07/09 03:37:54;;;;;;;8.10;4.85;;;;;;;22.73;52.80;99542.69;5072533;28;20040;-70
2022/07/09 03:40:20;;;;;;;15.32;4.68;;;;;;;22.73;52.47;99537.28;5072468;28;20051;-68
2022/07/09 03:42:45;;;;;;;10.25;5.03;;;;;;;22.75;52.22;99525.25;5072719;28;20078;-69
2022/07/09 03:45:11;;;;;;;7.70;5.30;;;;;;;22.74;51.85;99506.59;5072682;28;20102;-68
2022/07/09 03:47:36;;;;;;;12.35;6.28;;;;;;;22.75;52.03;99489.38;5072772;28;20036;-68
2022/07/09 03:50:03;;;;;;;21.60;6.60;;;;;;;22.75;52.00;99487.50;5072493;28;20028;-69
2022/07/09 03:52:29;;;;;;;12.98;6.55;;;;;;;22.72;51.98;99477.09;5072593;28;20403;-70
2022/07/09 03:54:54;;;;;;;13.63;6.15;;;;;;;22.70;51.65;99490.00;5072228;28;20044;-67
2022/07/09 03:57:20;;;;;;;11.95;5.47;;;;;;;22.71;51.57;99508.66;5072501;28;20369;-69
2022/07/09 03:59:45;;;;;;;9.80;6.05;;;;;;;22.77;51.24;99514.28;5072433;28;20118;-68
2022/07/09 04:02:11;;;;;;;11.43;6.63;;;;;;;22.79;51.29;99513.03;5072043;28;20082;-69
2022/07/09 04:04:36;;;;;;;19.02;7.57;;;;;;;22.86;51.56;99529.25;5072732;28;20077;-69
2022/07/09 04:07:02;;;;;;;13.98;6.65;;;;;;;22.93;51.95;99524.72;5072189;28;20071;-69
2022/07/09 04:09:27;;;;;;;13.60;6.40;;;;;;;22.99;51.48;99529.28;5073065;28;20380;-69
2022/07/09 04:11:53;;;;;;;12.45;7.93;;;;;;;23.05;51.82;99513.34;5072678;28;20111;-68
2022/07/09 04:14:19;;;;;;;16.00;7.07;;;;;;;23.12;51.56;99522.28;5072220;28;20505;-70
2022/07/09 04:16:46;;;;;;;13.88;7.25;;;;;;;23.17;51.16;99526.03;5072297;28;20028;-67
2022/07/09 04:19:12;;;;;;;9.98;7.68;;;;;;;23.21;50.89;99522.94;5072146;28;20462;-68
2022/07/09 04:21:37;;;;;;;11.55;5.60;;;;;;;23.25;50.85;99530.44;5072013;28;20040;-69
2022/07/09 04:24:03;;;;;;;12.32;6.93;;;;;;;23.27;50.69;99528.38;5072448;28;20033;-67
2022/07/09 04:26:28;;;;;;;13.82;6.18;;;;;;;23.32;50.81;99535.84;5072287;28;20071;-68
2022/07/09 04:28:54;;;;;;;9.32;5.75;;;;;;;23.35;50.73;99535.44;5072297;28;20444;-69
2022/07/09 04:31:21;;;;;;;12.52;6.65;;;;;;;23.38;50.50;99545.03;5070721;28;20032;-70
2022/07/09 04:33:47;;;;;;;12.07;6.05;;;;;;;23.45;50.30;99548.53;5072296;28;20055;-69
2022/07/09 04:36:12;;;;;;;14.25;6.82;;;;;;;23.51;50.63;99552.28;5072009;28;20032;-69
2022/07/09 04:38:38;;;;;;;14.90;6.82;;;;;;;23.60;50.14;99545.69;5071994;28;20070;-71
2022/07/09 04:41:04;;;;;;;13.00;5.80;;;;;;;23.70;50.21;99537.13;5071835;28;20038;-68
2022/07/09 04:43:31;;;;;;;10.30;5.80;;;;;;;23.89;49.82;99538.19;5071819;28;20039;-69
2022/07/09 04:45:56;;;;;;;13.02;6.88;;;;;;;24.11;49.30;99535.28;5072326;28;20090;-70
2022/07/09 04:48:22;;;;;;;13.70;7.15;;;;;;;24.35;48.76;99522.97;5071995;28;20040;-68
2022/07/09 04:50:47;;;;;;;12.68;5.78;;;;;;;24.55;48.47;99524.81;5071679;28;20043;-68
2022/07/09 04:53:13;;;;;;;13.00;6.30;;;;;;;24.73;47.65;99527.66;5074608;28;20064;-70
2022/07/09 04:55:38;;;;;;;8.15;4.57;;;;;;;24.91;47.08;99529.69;5075549;28;20062;-70
2022/07/09 04:58:04;;;;;;;13.65;4.47;;;;;;;25.08;46.46;99524.59;5075607;28;20047;-68
2022/07/09 05:00:30;;;;;;;12.20;4.70;;;;;;;25.14;46.50;99515.63;5075177;28;20412;-68
2022/07/09 05:02:55;;;;;;;12.90;4.68;;;;;;;25.18;46.12;99529.53;5075567;28;20036;-69
2022/07/09 05:05:23;;;;;;;9.15;4.63;;;;;;;25.33;45.64;99518.41;5075085;28;20037;-67
2022/07/09 05:07:49;;;;;;;6.72;3.80;;;;;;;25.48;44.61;99512.72;5074994;28;20040;-68
2022/07/09 05:10:14;;;;;;;9.20;4.93;;;;;;;25.53;44.61;99512.88;5075145;28;20119;-69
2022/07/09 05:12:40;;;;;;;7.47;4.15;;;;;;;25.58;44.32;99515.75;5075618;28;20035;-71
2022/07/09 05:15:06;;;;;;;8.05;4.45;;;;;;;25.63;44.38;99511.56;5075190;28;20028;-69
2022/07/09 05:17:36;;;;;;;7.53;3.58;;;;;;;25.70;44.32;99510.47;5075119;28;20032;-69
2022/07/09 05:20:03;;;;;;;8.73;3.13;;;;;;;25.57;44.27;99507.84;5075623;28;20049;-69
2022/07/09 05:22:33;;;;;;;4.80;3.58;;;;;;;25.50;44.28;99502.50;5074867;28;20054;-68
2022/07/09 05:24:59;;;;;;;6.65;3.42;;;;;;;25.43;43.96;99504.41;5074784;28;20438;-69
2022/07/09 05:27:25;;;;;;;5.45;3.05;;;;;;;25.27;44.44;99511.16;5074899;28;20036;-69
2022/07/09 05:29:51;;;;;;;3.58;2.80;;;;;;;25.15;44.80;99519.13;5074681;28;20103;-68
2022/07/09 05:32:16;;;;;;;6.15;2.67;;;;;;;25.07;44.90;99514.81;5075122;28;20480;-69
2022/07/09 05:34:42;;;;;;;7.65;2.90;;;;;;;24.99;45.01;99524.00;5074559;28;20071;-67
2022/07/09 05:37:08;;;;;;;7.40;2.80;;;;;;;24.89;45.20;99511.97;5074978;28;20098;-68
2022/07/09 05:39:33;;;;;;;6.63;2.60;;;;;;;24.88;44.92;99519.28;5074830;28;20036;-69
2022/07/09 05:41:58;;;;;;;8.95;3.15;;;;;;;24.83;45.13;99519.09;5074847;28;20391;-68
2022/07/09 05:44:24;;;;;;;5.25;2.50;;;;;;;24.76;45.50;99515.59;5074689;28;20020;-70
2022/07/09 05:46:50;;;;;;;4.55;3.03;;;;;;;24.74;45.29;99509.56;5074730;28;20030;-69
2022/07/09 05:49:15;;;;;;;9.90;2.88;;;;;;;24.80;45.26;99504.13;5074962;28;20032;-68
2022/07/09 05:51:41;;;;;;;8.95;3.10;;;;;;;24.87;45.28;99501.38;5074551;28;20044;-68
2022/07/09 05:54:06;;;;;;;4.40;2.28;;;;;;;24.91;45.30;99515.31;5074174;28;20050;-69
2022/07/09 05:56:32;;;;;;;5.55;2.38;;;;;;;24.87;45.55;99504.09;5074328;28;20070;-69
2022/07/09 05:58:57;;;;;;;4.65;2.63;;;;;;;24.80;45.36;99508.69;5074607;28;20498;-69
2022/07/09 06:01:23;;;;;;;6.10;2.35;;;;;;;24.78;45.62;99506.22;5074031;28;20488;-68
2022/07/09 06:03:48;;;;;;;3.40;2.30;;;;;;;24.77;45.54;99504.56;5073160;28;20032;-69
2022/07/09 06:06:14;;;;;;;8.15;2.03;;;;;;;24.81;45.99;99494.13;5074454;28;20029;-68
2022/07/09 06:08:39;;;;;;;4.32;2.05;;;;;;;24.98;45.38;99489.88;5074267;28;20032;-69
2022/07/09 06:11:05;;;;;;;5.45;2.10;;;;;;;25.14;44.92;99493.97;5074389;28;20028;-70
2022/07/09 06:13:30;;;;;;;5.18;2.45;;;;;;;25.31;44.57;99485.28;5074270;28;20032;-68
2022/07/09 06:15:56;;;;;;;2.70;1.73;;;;;;;25.53;43.92;99485.78;5074194;28;20025;-69
2022/07/09 06:18:24;;;;;;;5.22;2.20;;;;;;;25.70;43.32;99482.50;5073635;28;20140;-68
2022/07/09 06:20:50;;;;;;;4.35;2.13;;;;;;;25.78;42.96;99476.84;5074694;28;20033;-70
2022/07/09 06:23:15;;;;;;;5.07;2.15;;;;;;;25.78;42.90;99482.25;5073528;28;20048;-69
2022/07/09 06:25:41;;;;;;;6.88;2.33;;;;;;;25.60;43.12;99480.31;5073627;28;20035;-69
2022/07/09 06:28:06;;;;;;;3.28;1.90;;;;;;;25.52;43.68;99483.28;5073231;28;20381;-68
2022/07/09 06:30:36;;;;;;;2.83;2.03;;;;;;;25.37;43.83;99487.13;5074071;28;20041;-68
2022/07/09 06:33:01;;;;;;;3.45;1.90;;;;;;;25.32;43.86;99483.41;5073297;28;20085;-68
2022/07/09 06:35:27;;;;;;;4.18;2.10;;;;;;;25.33;44.19;99475.06;5073522;28;20028;-69
2022/07/09 06:37:52;;;;;;;5.65;2.00;;;;;;;25.32;44.02;99467.16;5073452;28;20480;-68
2022/07/09 06:40:18;;;;;;;4.05;2.42;;;;;;;25.27;44.12;99476.78;5073784;28;20077;-69
2022/07/09 06:42:43;;;;;;;5.55;2.20;;;;;;;25.25;44.03;99481.56;5073449;28;20028;-68
2022/07/09 06:45:09;;;;;;;8.25;2.75;;;;;;;25.22;43.97;99486.59;5073604;28;20035;-68
2022/07/09 06:47:35;;;;;;;4.57;2.35;;;;;;;25.19;44.11;99474.34;5073360;28;20036;-70
2022/07/09 06:50:00;;;;;;;4.38;2.17;;;;;;;25.17;43.73;99476.44;5073693;28;20476;-68
2022/07/09 06:52:27;;;;;;;4.35;2.20;;;;;;;25.16;44.05;99474.78;5072993;28;20039;-68
2022/07/09 06:54:52;;;;;;;6.07;1.88;;;;;;;25.12;44.15;99470.84;5073195;28;20047;-69
2022/07/09 06:57:18;;;;;;;3.28;2.08;;;;;;;25.13;43.82;99483.34;5073420;28;20028;-69
2022/07/09 06:59:45;;;;;;;2.40;1.48;;;;;;;25.08;43.43;99473.16;5071843;28;20391;-69
2022/07/09 07:02:11;;;;;;;4.28;2.00;;;;;;;25.05;43.49;99473.59;5072604;28;20037;-68
2022/07/09 07:04:37;;;;;;;5.07;1.88;;;;;;;25.01;43.54;99464.25;5073572;28;20032;-68
2022/07/09 07:07:02;;;;;;;7.25;1.83;;;;;;;25.02;43.57;99462.38;5073243;28;20372;-69
2022/07/09 07:09:28;;;;;;;3.10;2.20;;;;;;;25.05;43.40;99461.94;5073279;28;20036;-69
2022/07/09 07:11:54;;;;;;;4.38;2.08;;;;;;;25.03;43.34;99470.25;5072689;28;20075;-67
2022/07/09 07:14:19;;;;;;;3.35;1.58;;;;;;;24.96;43.44;99464.91;5073120;28;20086;-67
2022/07/09 07:16:45;;;;;;;5.15;1.73;;;;;;;24.99;43.75;99469.88;5056549;28;20039;-69
2022/07/09 07:19:10;;;;;;;3.65;1.67;;;;;;;25.05;43.36;99467.38;5060553;28;20059;-68
2022/07/09 07:21:37;;;;;;;4.25;1.95;;;;;;;25.08;43.87;99470.44;5072479;28;20028;-68
2022/07/09 07:24:04;;;;;;;4.05;2.10;;;;;;;25.10;43.52;99462.94;5073072;28;20135;-69
2022/07/09 07:26:29;;;;;;;6.03;1.80;;;;;;;25.10;43.89;99471.06;5072508;28;20040;-71
2022/07/09 07:28:55;;;;;;;3.45;1.67;;;;;;;25.08;43.54;99485.84;5072881;28;20545;-69
2022/07/09 07:31:22;;;;;;;3.63;1.48;;;;;;;25.01;43.61;99487.78;5072640;28;20032;-68
2022/07/09 07:33:48;;;;;;;4.38;2.33;;;;;;;24.95;43.73;99486.78;5072576;28;20036;-68
2022/07/09 07:36:13;;;;;;;6.22;2.20;;;;;;;24.92;44.31;99488.03;5072381;28;20112;-68
2022/07/09 07:38:39;;;;;;;4.85;1.58;;;;;;;24.89;44.93;99490.34;5072537;28;20068;-69
2022/07/09 07:41:04;;;;;;;4.18;1.77;;;;;;;24.86;45.20;99483.50;5072199;28;20036;-69
2022/07/09 07:43:30;;;;;;;4.18;2.10;;;;;;;24.80;45.56;99477.06;5072728;28;20028;-70
2022/07/09 07:45:56;;;;;;;5.13;1.95;;;;;;;24.75;45.60;99473.34;5072458;28;20116;-69
2022/07/09 07:48:22;;;;;;;2.58;1.50;;;;;;;24.74;45.54;99479.81;5072404;28;20120;-71
2022/07/09 07:50:47;;;;;;;2.45;1.85;;;;;;;24.80;45.34;99493.31;5073066;28;20028;-69
2022/07/09 07:53:12;;;;;;;2.97;1.80;;;;;;;24.88;45.42;99497.63;5072582;28;20044;-69
2022/07/09 07:55:39;;;;;;;5.30;2.17;;;;;;;24.92;44.99;99501.59;5072686;28;20113;-70
2022/07/09 07:58:05;;;;;;;5.38;2.17;;;;;;;24.97;45.16;99503.63;5072538;28;20033;-70
2022/07/09 08:00:31;;;;;;;3.90;1.80;;;;;;;25.01;44.98;99504.84;5072247;28;20103;-70
2022/07/09 08:02:56;;;;;;;5.07;2.38;;;;;;;25.02;45.21;99513.81;5072160;28;20492;-68
2022/07/09 08:05:22;;;;;;;5.72;2.42;;;;;;;24.99;45.79;99523.19;5072657;28;20032;-67
2022/07/09 08:07:47;;;;;;;7.65;2.80;;;;;;;24.99;46.12;99523.19;5072254;28;20402;-68
2022/07/09 08:10:13;;;;;;;4.25;2.33;;;;;;;24.99;45.77;99524.00;5072233;28;20100;-68
2022/07/09 08:12:38;;;;;;;5.75;2.25;;;;;;;24.99;46.03;99526.72;5072089;28;20109;-69
2022/07/09 08:15:04;;;;;;;5.07;2.50;;;;;;;24.96;46.09;99519.03;5072214;28;20028;-69
2022/07/09 08:17:30;;;;;;;5.90;2.60;;;;;;;24.94;46.11;99515.69;5072370;28;20442;-69
2022/07/09 08:19:55;;;;;;;4.53;2.38;;;;;;;24.97;46.05;99533.41;5072079;28;20053;-70
2022/07/09 08:22:21;;;;;;;4.88;2.75;;;;;;;24.95;46.72;99528.19;5072032;28;20504;-70
2022/07/09 08:24:46;;;;;;;7.75;2.50;;;;;;;24.87;46.70;99524.91;5072424;28;20483;-69
2022/07/09 08:27:12;;;;;;;5.03;2.53;;;;;;;24.82;47.04;99517.44;5073057;28;20032;-69
2022/07/09 08:29:37;;;;;;;4.55;2.30;;;;;;;24.81;46.75;99516.63;5075794;28;20836;-70
2022/07/09 08:32:04;;;;;;;5.13;2.13;;;;;;;24.85;46.56;99521.59;5075887;28;20039;-68
2022/07/09 08:34:29;;;;;;;6.05;2.90;;;;;;;24.84;46.64;99523.47;5076143;28;20533;-71
2022/07/09 08:36:55;;;;;;;5.60;2.33;;;;;;;24.81;46.91;99513.91;5075973;28;20036;-71
2022/07/09 08:39:20;;;;;;;4.43;2.25;;;;;;;24.77;47.09;99519.97;5076679;28;20476;-69
2022/07/09 08:41:47;;;;;;;6.15;2.33;;;;;;;24.75;47.34;99508.53;5075518;28;20036;-71
2022/07/09 08:44:12;;;;;;;6.40;3.35;;;;;;;24.73;47.05;99516.84;5075927;28;20494;-70
2022/07/09 08:46:39;;;;;;;4.32;2.80;;;;;;;24.73;47.41;99519.53;5075779;28;20044;-70
2022/07/09 08:49:07;;;;;;;3.45;2.25;;;;;;;24.68;47.91;99505.81;5076063;28;20050;-69
2022/07/09 08:51:34;;;;;;;4.95;2.55;;;;;;;24.58;47.82;99508.13;5075604;28;20029;-68
2022/07/09 08:54:00;;;;;;;3.13;2.45;;;;;;;24.54;48.33;99507.72;5075815;28;20109;-69
2022/07/09 08:56:25;;;;;;;8.18;2.50;;;;;;;24.48;48.85;99517.53;5075705;28;20028;-68
2022/07/09 08:58:51;;;;;;;4.55;2.10;;;;;;;24.47;48.70;99515.06;5075671;28;20028;-70
2022/07/09 09:01:19;;;;;;;2.70;2.00;;;;;;;24.49;48.75;99507.53;5075207;28;20056;-70
2022/07/09 09:03:45;;;;;;;4.45;2.00;;;;;;;24.50;49.12;99509.19;5075548;28;20032;-68
2022/07/09 09:06:12;;;;;;;6.85;2.42;;;;;;;24.48;49.33;99505.91;5075540;28;20059;-70
2022/07/09 09:08:40;;;;;;;4.57;2.40;;;;;;;24.49;48.80;99502.13;5075497;28;20115;-70
2022/07/09 09:11:08;;;;;;;5.20;2.58;;;;;;;24.50;48.94;99496.53;5075897;28;20419;-69
2022/07/09 09:13:40;;;;;;;5.07;2.30;;;;;;;24.49;49.26;99483.19;5075548;28;20032;-70
2022/07/09 09:16:07;;;;;;;4.45;2.13;;;;;;;24.45;49.06;99481.97;5075117;28;20032;-68
2022/07/09 09:18:39;;;;;;;3.20;2.30;;;;;;;24.45;49.25;99488.19;5075089;28;20424;-71
2022/07/09 09:21:06;;;;;;;4.72;2.38;;;;;;;24.45;49.19;99484.69;5074900;28;20043;-69
2022/07/09 09:23:39;;;;;;;4.38;2.72;;;;;;;24.43;49.30;99475.94;5075275;28;20115;-70
2022/07/09 09:26:15;;;;;;;3.97;2.67;;;;;;;24.42;49.19;99477.00;5075258;28;20051;-69
2022/07/09 09:28:54;;;;;;;6.15;2.70;;;;;;;24.39;49.62;99470.16;5075040;28;20029;-70
2022/07/09 09:31:22;;;;;;;8.32;3.28;;;;;;;24.36;49.17;99463.25;5074686;28;20476;-68
2022/07/09 09:33:48;;;;;;;4.70;2.40;;;;;;;24.39;49.56;99464.72;5074687;28;20029;-70
2022/07/09 09:36:34;;;;;;;7.82;3.05;;;;;;;24.45;49.75;99463.03;5074624;28;20028;-68
2022/07/09 09:39:14;;;;;;;4.53;2.70;;;;;;;24.47;49.80;99458.25;5074585;28;20028;-68
2022/07/09 09:41:41;;;;;;;5.13;2.25;;;;;;;24.47;49.73;99464.47;5075190;28;20028;-71
2022/07/09 09:44:09;;;;;;;4.68;2.60;;;;;;;24.52;48.96;99453.00;5074898;28;20040;-69
2022/07/09 09:46:37;;;;;;;5.13;2.92;;;;;;;24.51;49.27;99446.78;5074526;28;20032;-71
2022/07/09 09:49:07;;;;;;;5.05;2.65;;;;;;;24.53;49.01;99442.00;5074574;28;20052;-69
2022/07/09 09:51:36;;;;;;;3.40;2.40;;;;;;;24.54;48.96;99432.00;5074529;28;20077;-70
2022/07/09 09:54:03;;;;;;;5.35;2.78;;;;;;;24.57;49.21;99439.69;5074344;28;20345;-69
2022/07/09 09:56:29;;;;;;;6.25;2.58;;;;;;;24.56;49.24;99432.63;5074112;28;20082;-68
2022/07/09 09:58:57;;;;;;;4.72;2.80;;;;;;;24.58;48.76;99424.28;5074137;28;20114;-70
2022/07/09 10:01:23;;;;;;;5.15;2.50;;;;;;;24.56;49.15;99429.09;5073925;28;20514;-69
2022/07/09 10:03:50;;;;;;;5.50;2.90;;;;;;;24.59;49.36;99428.63;5074245;28;20073;-70
2022/07/09 10:06:15;;;;;;;4.43;2.85;;;;;;;24.58;48.89;99425.13;5074553;28;20040;-67
2022/07/09 10:08:41;;;;;;;6.15;3.45;;;;;;;24.53;48.74;99419.53;5072561;28;20039;-67
2022/07/09 10:11:06;;;;;;;7.03;2.90;;;;;;;24.47;48.84;99420.41;5074082;28;20419;-68
2022/07/09 10:13:32;;;;;;;3.42;2.58;;;;;;;24.49;48.61;99411.00;5074122;28;20032;-68
2022/07/09 10:15:59;;;;;;;5.05;2.83;;;;;;;24.52;48.48;99415.16;5074243;28;20068;-69
2022/07/09 10:18:24;;;;;;;4.65;2.95;;;;;;;24.50;48.06;99414.53;5073691;28;20031;-67
2022/07/09 10:20:56;;;;;;;6.60;2.83;;;;;;;24.47;48.09;99413.09;5072957;28;20028;-67
2022/07/09 10:23:22;;;;;;;14.32;3.63;;;;;;;24.48;48.22;99412.06;5074053;28;20033;-67
2022/07/09 10:25:55;;;;;;;7.32;3.40;;;;;;;24.45;48.20;99414.38;5074077;28;20047;-69
2022/07/09 10:28:22;;;;;;;4.35;3.03;;;;;;;24.43;48.09;99401.03;5073611;28;20119;-70
2022/07/09 10:30:48;;;;;;;7.60;3.20;;;;;;;24.49;47.99;99399.34;5073921;28;20407;-69
2022/07/09 10:33:22;;;;;;;7.68;3.25;;;;;;;24.55;47.94;99403.91;5073352;28;20031;-69
2022/07/09 10:35:51;;;;;;;7.32;3.53;;;;;;;24.57;47.68;99399.13;5073345;28;20101;-69
2022/07/09 10:38:17;;;;;;;7.97;4.15;;;;;;;24.58;47.46;99389.13;5073409;28;20033;-69
2022/07/09 10:40:46;;;;;;;14.75;3.45;;;;;;;24.56;47.63;99388.53;5073361;28;20032;-69
2022/07/09 10:43:12;;;;;;;6.90;3.08;;;;;;;24.58;47.83;99383.69;5072907;28;20487;-69
2022/07/09 10:45:42;;;;;;;5.80;3.22;;;;;;;24.64;47.98;99382.84;5073543;28;20032;-70
2022/07/09 10:48:10;;;;;;;6.72;4.13;;;;;;;24.61;47.92;99376.00;5073358;28;20400;-68
2022/07/09 10:50:38;;;;;;;8.80;3.72;;;;;;;24.62;47.91;99372.25;5072684;28;20029;-68
2022/07/09 10:53:04;;;;;;;7.63;4.10;;;;;;;24.67;47.88;99372.41;5073043;28;20028;-69
2022/07/09 10:55:30;;;;;;;8.27;3.70;;;;;;;24.68;47.75;99359.72;5073462;28;20033;-68
2022/07/09 10:57:56;;;;;;;8.20;4.05;;;;;;;24.67;48.08;99350.78;5073243;28;20032;-67
2022/07/09 11:00:25;;;;;;;8.13;3.80;;;;;;;24.65;47.85;99347.44;5073343;28;20039;-69
2022/07/09 11:03:08;;;;;;;5.53;4.00;;;;;;;24.57;48.61;99345.03;5072779;28;20074;-67
2022/07/09 11:05:44;;;;;;;13.30;5.55;;;;;;;24.56;47.95;99337.13;5073330;28;20032;-70
2022/07/09 11:08:10;;;;;;;8.50;3.97;;;;;;;24.56;47.97;99331.72;5073125;28;20028;-69
2022/07/09 11:10:37;;;;;;;8.65;5.13;;;;;;;24.52;47.97;99334.00;5073339;28;20101;-69
2022/07/09 11:13:06;;;;;;;5.78;4.18;;;;;;;24.47;47.99;99328.44;5072897;28;20039;-70
2022/07/09 11:15:34;;;;;;;7.93;4.00;;;;;;;24.44;47.73;99316.16;5073150;28;20388;-70
2022/07/09 11:18:04;;;;;;;7.20;3.60;;;;;;;24.39;46.72;99316.00;5072867;28;20028;-68
2022/07/09 11:20:45;;;;;;;4.38;2.80;;;;;;;24.38;45.65;99317.06;5072191;28;20135;-69
2022/07/09 11:23:15;;;;;;;4.80;3.00;;;;;;;24.34;45.59;99311.22;5072735;28;20048;-69
2022/07/09 11:25:41;;;;;;;4.70;2.75;;;;;;;24.34;45.33;99305.81;5072982;28;20134;-71
2022/07/09 11:28:07;;;;;;;4.28;2.75;;;;;;;24.36;45.09;99303.72;5072869;28;20432;-70